Grey Cloud Island, Minnesota
Current Conditions -  °F | °C
As of 9:10 PM on Sunday 21 Dec 2014 (Local Time) from KSGS Reporting Station
Light Rain Light Rain  
Wind Chill: 33°   Ceiling: 1200
Heat Index: 37°   Visibility: 4mi
Dew Point: 37°   Wind: 6mph
Humidity: 97%   Direction: 160°SSE
Pressure: 29.74"   Gusts: NA
Location:  44.8338°N, 92.9932°W
Report Text: KSGS 220310Z AUTO 16005KT 4SM -RA OVC012 03/03 A2974 RMK AO2 P0001 T00300025
Loading
Personal Weather Stations






























Interactive Weather Map New forecast layout! Learn more

10-Day Weather Forecast

Advertisements
Track Severe Weather on mobile